createdAt,value
2023-05-21T00:00:59.421Z,11.8860
2023-05-21T00:02:01.917Z,11.8129
2023-05-21T00:03:04.229Z,11.7992
2023-05-21T00:04:05.619Z,11.7201
2023-05-21T00:05:07.439Z,11.6143
2023-05-21T00:06:09.955Z,11.6603
2023-05-21T00:07:11.607Z,11.7266
2023-05-21T00:08:12.652Z,11.7120
2023-05-21T00:09:14.287Z,11.6778
2023-05-21T00:10:16.082Z,11.6939
2023-05-21T00:11:16.977Z,11.6977
2023-05-21T00:12:18.145Z,11.6211
2023-05-21T00:13:20.105Z,11.7014
2023-05-21T00:14:21.445Z,11.7855
2023-05-21T00:15:22.048Z,11.7590
2023-05-21T00:16:23.129Z,11.8071
2023-05-21T00:17:24.377Z,11.7914
2023-05-21T00:19:25.399Z,12.0661
2023-05-21T00:20:26.930Z,12.1255
2023-05-21T00:21:28.873Z,12.2277
2023-05-21T00:23:30.980Z,12.1710
2023-05-21T00:24:33.206Z,12.0722
2023-05-21T00:25:34.461Z,11.9810
2023-05-21T00:26:35.573Z,11.8944
2023-05-21T00:28:39.440Z,11.7676
2023-05-21T00:31:40.290Z,12.0685
2023-05-21T00:32:41.291Z,11.9346
2023-05-21T00:33:43.972Z,11.8940
2023-05-21T00:34:44.143Z,11.9034
2023-05-21T00:35:45.897Z,11.8790
2023-05-21T00:36:47.090Z,12.1602
2023-05-21T00:37:48.274Z,12.2592
2023-05-21T00:38:51.017Z,12.2909
2023-05-21T00:39:51.919Z,12.3322
2023-05-21T00:40:52.943Z,12.2963
2023-05-21T00:41:54.764Z,12.0742
2023-05-21T00:42:56.114Z,12.0916
2023-05-21T00:43:58.210Z,11.9748
2023-05-21T00:44:59.841Z,11.8531
2023-05-21T00:46:00.743Z,11.8112
2023-05-21T00:47:02.529Z,11.8013
2023-05-21T00:48:03.853Z,11.8621
2023-05-21T00:49:05.032Z,11.8918
2023-05-21T00:50:06.965Z,11.8697
2023-05-21T00:51:09.430Z,11.9617
2023-05-21T00:52:10.460Z,11.9863
2023-05-21T00:53:11.505Z,11.9206
2023-05-21T00:54:13.298Z,12.0989
2023-05-21T00:55:15.251Z,12.1154
2023-05-21T00:56:16.292Z,12.1592
2023-05-21T00:57:16.924Z,11.9529
2023-05-21T00:58:19.154Z,11.8947
2023-05-21T00:59:20.367Z,11.9534
2023-05-21T01:00:21.697Z,11.9805
2023-05-21T01:01:23.832Z,12.1167
2023-05-21T01:02:25.744Z,12.1745
2023-05-21T01:03:27.292Z,12.2195
2023-05-21T01:04:29.204Z,12.3100
2023-05-21T01:05:30.847Z,12.3096
2023-05-21T01:06:32.522Z,12.3047
2023-05-21T01:07:33.512Z,12.2813
2023-05-21T01:08:35.009Z,12.2930
2023-05-21T01:09:37.425Z,12.3127
2023-05-21T01:18:46.235Z,12.1806
2023-05-21T01:19:46.611Z,12.1884
2023-05-21T01:23:48.022Z,12.1854
2023-05-21T01:24:49.630Z,12.1605
2023-05-21T01:28:52.778Z,12.2018
2023-05-21T01:29:53.668Z,12.1480
2023-05-21T01:30:55.868Z,12.1003
2023-05-21T01:31:58.077Z,12.1733
2023-05-21T01:32:59.345Z,12.1460
2023-05-21T01:34:01.706Z,12.1469
2023-05-21T01:37:05.221Z,12.1439
2023-05-21T01:38:07.109Z,12.1618
2023-05-21T01:40:08.093Z,12.0852
2023-05-21T01:41:09.994Z,12.0586
2023-05-21T01:42:10.877Z,12.0933
2023-05-21T01:43:11.984Z,12.0520
2023-05-21T01:44:13.743Z,12.0786
2023-05-21T01:45:15.652Z,12.1263
2023-05-21T01:46:16.689Z,12.1058
2023-05-21T01:47:17.700Z,12.1311
2023-05-21T01:48:18.689Z,12.1017
2023-05-21T01:49:20.570Z,12.0512
2023-05-21T01:54:24.285Z,12.0358
2023-05-21T01:55:25.485Z,12.0461
2023-05-21T01:56:27.347Z,12.0120
2023-05-21T01:57:28.310Z,12.0101
2023-05-21T01:58:30.542Z,11.9839
2023-05-21T01:59:31.769Z,11.9757
2023-05-21T02:00:33.465Z,11.9243
2023-05-21T02:01:36.019Z,11.9563
2023-05-21T02:02:36.712Z,11.9825
2023-05-21T02:03:36.789Z,11.9750
2023-05-21T02:04:39.297Z,11.9491
2023-05-21T02:05:39.585Z,11.8855
2023-05-21T02:06:40.592Z,11.8761
2023-05-21T02:07:42.501Z,11.9391
2023-05-21T02:08:43.301Z,11.9342
2023-05-21T02:15:51.270Z,11.9064
2023-05-21T02:16:53.394Z,11.9248
2023-05-21T02:17:55.966Z,11.8674
2023-05-21T02:20:58.235Z,11.7598
2023-05-21T02:21:59.405Z,11.8328
2023-05-21T02:23:00.334Z,11.7648
2023-05-21T02:24:02.406Z,11.7748
2023-05-21T02:25:06.979Z,11.9128
2023-05-21T02:27:04.672Z,12.0611
2023-05-21T02:28:06.845Z,12.0929
2023-05-21T02:29:08.143Z,12.0200
2023-05-21T02:31:11.473Z,11.8427
2023-05-21T02:34:14.275Z,11.8584
2023-05-21T02:35:15.462Z,11.8337
2023-05-21T02:36:16.436Z,11.9657
2023-05-21T02:37:18.886Z,12.0009
2023-05-21T02:38:20.496Z,11.8866
2023-05-21T02:39:21.982Z,11.9356
2023-05-21T02:40:22.356Z,11.9054
2023-05-21T02:41:23.480Z,11.9585
2023-05-21T02:42:25.124Z,11.8648
2023-05-21T02:43:26.112Z,11.8628
2023-05-21T02:44:28.288Z,11.8856
2023-05-21T02:45:29.597Z,11.8718
2023-05-21T02:46:30.745Z,11.6802
2023-05-21T02:47:32.678Z,11.6788
2023-05-21T02:48:33.519Z,11.8375
2023-05-21T02:49:35.538Z,11.8966
2023-05-21T02:57:43.679Z,11.6440
2023-05-21T02:58:45.712Z,11.5039
2023-05-21T02:59:47.287Z,11.4667
2023-05-21T03:00:48.357Z,11.3735
2023-05-21T03:01:50.760Z,11.3789
2023-05-21T03:02:50.943Z,11.6675
2023-05-21T03:03:52.610Z,11.7838
2023-05-21T03:04:54.350Z,11.8012
2023-05-21T03:05:56.187Z,11.7185
2023-05-21T03:06:56.931Z,11.5941
2023-05-21T03:07:58.352Z,11.6701
2023-05-21T03:09:00.577Z,11.7428
2023-05-21T03:10:01.606Z,11.7436
2023-05-21T03:11:03.177Z,11.6876
2023-05-21T03:12:04.711Z,11.6408
2023-05-21T03:13:08.195Z,11.7101
2023-05-21T03:14:07.856Z,11.6854
2023-05-21T03:17:40.370Z,11.7239
2023-05-21T03:18:40.549Z,11.6431
2023-05-21T03:19:41.828Z,11.7132
2023-05-21T03:20:42.794Z,11.5676
2023-05-21T03:21:44.053Z,11.4143
2023-05-21T03:23:46.688Z,11.0474
2023-05-21T03:24:48.001Z,10.8806
2023-05-21T03:25:49.525Z,10.8984
2023-05-21T03:26:50.586Z,11.1091
2023-05-21T03:27:51.549Z,11.1987
2023-05-21T03:28:53.070Z,11.0059
2023-05-21T03:29:55.020Z,10.8985
2023-05-21T03:30:56.447Z,10.9347
2023-05-21T03:31:57.735Z,11.0481
2023-05-21T03:32:59.202Z,10.8135
2023-05-21T03:34:00.671Z,10.7843
2023-05-21T03:35:01.869Z,10.6503
2023-05-21T03:36:03.487Z,10.4622
2023-05-21T03:37:04.498Z,10.5205
2023-05-21T03:38:05.650Z,10.6534
2023-05-21T03:39:06.953Z,10.3468
2023-05-21T03:40:08.336Z,10.5683
2023-05-21T03:41:10.435Z,10.6314
2023-05-21T03:42:10.474Z,10.8967
2023-05-21T03:43:11.554Z,11.0391
2023-05-21T03:44:12.222Z,11.1372
2023-05-21T03:45:12.922Z,11.0748
2023-05-21T03:46:13.866Z,11.1207
2023-05-21T03:47:14.110Z,11.0495
2023-05-21T03:48:15.315Z,10.9131
2023-05-21T03:49:16.955Z,10.9017
2023-05-21T03:50:17.964Z,10.9750
2023-05-21T03:51:18.511Z,11.0343
2023-05-21T03:52:20.766Z,11.0468
2023-05-21T03:53:21.391Z,11.1852
2023-05-21T03:54:22.595Z,11.1114
2023-05-21T03:55:23.741Z,11.3991
2023-05-21T03:56:25.184Z,11.2271
2023-05-21T03:57:26.264Z,11.0679
2023-05-21T03:58:27.878Z,10.8198
2023-05-21T03:59:30.194Z,10.2695
2023-05-21T04:01:30.469Z,10.8219
2023-05-21T04:02:32.028Z,11.1427
2023-05-21T04:10:41.227Z,11.3422
2023-05-21T04:11:42.133Z,11.2138
2023-05-21T04:12:43.700Z,11.4223
2023-05-21T04:13:45.412Z,11.4495
2023-05-21T04:15:47.113Z,11.5600
2023-05-21T04:16:49.725Z,11.4995
2023-05-21T04:22:56.654Z,11.6160
2023-05-21T04:23:56.730Z,11.5828
2023-05-21T04:25:57.010Z,11.5934
2023-05-21T04:26:58.506Z,11.5526
2023-05-21T04:28:00.055Z,11.5522
2023-05-21T04:29:02.475Z,11.6188
2023-05-21T04:30:04.025Z,11.5805
2023-05-21T04:31:06.209Z,11.5905
2023-05-21T04:32:06.241Z,11.5119
2023-05-21T04:33:08.472Z,11.5774
2023-05-21T04:34:10.422Z,11.6870
2023-05-21T04:36:10.621Z,11.7007
2023-05-21T04:37:12.337Z,11.8021
2023-05-21T04:38:14.598Z,11.8162
2023-05-21T04:39:15.247Z,11.8334
2023-05-21T04:40:17.079Z,11.8764
2023-05-21T04:41:19.118Z,11.8798
2023-05-21T04:42:20.332Z,11.7228
2023-05-21T04:43:23.114Z,11.6501
2023-05-21T04:44:25.268Z,11.7494
2023-05-21T04:50:29.835Z,12.0539
2023-05-21T04:51:31.179Z,12.0850
2023-05-21T04:52:32.958Z,12.0934
2023-05-21T04:53:34.955Z,12.1077
2023-05-21T04:54:36.156Z,12.0559
2023-05-21T04:55:38.429Z,12.0482
2023-05-21T04:58:40.093Z,12.1401
2023-05-21T04:59:40.980Z,12.1683
2023-05-21T05:00:41.853Z,12.2414
2023-05-21T05:01:42.915Z,12.2547
2023-05-21T05:02:44.806Z,12.2533
2023-05-21T05:03:46.462Z,12.3489
2023-05-21T05:04:48.095Z,12.3839
2023-05-21T05:05:49.253Z,12.4486
2023-05-21T05:06:49.486Z,12.4279
2023-05-21T05:07:49.492Z,12.4899
2023-05-21T05:08:51.020Z,12.5457
2023-05-21T05:09:53.252Z,12.5121
2023-05-21T05:10:54.247Z,12.4196
2023-05-21T05:11:56.750Z,12.4141
2023-05-21T05:12:58.922Z,12.5991
2023-05-21T05:14:00.222Z,12.6228
2023-05-21T05:15:02.659Z,12.3851
2023-05-21T05:25:15.206Z,12.4023
2023-05-21T05:26:16.692Z,12.4374
2023-05-21T05:27:19.070Z,12.4149
2023-05-21T05:29:20.718Z,12.4668
2023-05-21T05:30:21.670Z,12.4353
2023-05-21T05:31:22.735Z,12.5513
2023-05-21T05:32:24.474Z,12.5480
2023-05-21T05:33:26.096Z,12.5803
2023-05-21T05:34:28.112Z,12.6162
2023-05-21T05:35:29.080Z,12.5923
2023-05-21T05:36:29.546Z,12.7306
2023-05-21T05:37:31.940Z,12.8509
2023-05-21T05:38:32.927Z,12.9321
2023-05-21T05:39:33.925Z,13.0177
2023-05-21T05:40:35.657Z,12.8903
2023-05-21T05:41:36.803Z,12.8796
2023-05-21T05:42:37.718Z,12.8168
2023-05-21T05:43:38.699Z,12.8141
2023-05-21T05:44:40.774Z,12.7530
2023-05-21T05:49:45.000Z,12.9704
2023-05-21T05:50:45.958Z,13.0306
2023-05-21T05:51:46.747Z,13.0812
2023-05-21T05:52:48.290Z,13.0948
2023-05-21T05:54:50.087Z,13.3366
2023-05-21T05:55:51.604Z,13.3259
2023-05-21T05:56:53.209Z,13.0531
2023-05-21T05:57:54.142Z,13.0235
2023-05-21T05:58:55.043Z,12.9569
2023-05-21T05:59:56.666Z,13.0937
2023-05-21T06:00:57.584Z,13.2581
2023-05-21T06:01:58.103Z,13.3071
2023-05-21T06:02:59.161Z,13.3024
2023-05-21T06:04:00.413Z,13.3845
2023-05-21T06:05:01.959Z,13.5832
2023-05-21T06:06:04.004Z,13.4977
2023-05-21T06:14:10.232Z,13.7041
2023-05-21T06:15:15.931Z,13.8813
2023-05-21T06:18:13.771Z,13.4556
2023-05-21T06:19:14.924Z,13.5866
2023-05-21T06:20:17.152Z,13.6709
2023-05-21T06:21:17.277Z,13.6815
2023-05-21T06:22:18.398Z,13.9758
2023-05-21T06:23:19.812Z,14.0537
2023-05-21T06:24:21.056Z,14.2464
2023-05-21T06:25:21.608Z,14.0222
2023-05-21T06:26:23.056Z,14.3827
2023-05-21T06:27:25.918Z,14.4559
2023-05-21T06:28:27.225Z,14.7512
2023-05-21T06:29:28.605Z,14.7778
2023-05-21T06:30:30.716Z,14.8583
2023-05-21T06:31:32.470Z,14.9489
2023-05-21T06:32:35.253Z,14.9098
2023-05-21T06:41:44.128Z,14.9216
2023-05-21T06:42:45.468Z,14.8177
2023-05-21T06:43:47.034Z,14.8179
2023-05-21T06:44:49.172Z,14.5474
2023-05-21T06:45:49.219Z,14.8492
2023-05-21T06:47:51.475Z,14.9657
2023-05-21T06:48:51.891Z,15.2658
2023-05-21T06:50:52.485Z,15.4804
2023-05-21T06:51:55.384Z,15.3646
2023-05-21T06:53:57.657Z,15.1665
2023-05-21T06:54:59.866Z,15.1270
2023-05-21T06:56:00.476Z,15.3999
2023-05-21T06:57:00.907Z,15.2058
2023-05-21T06:58:02.746Z,15.2857
2023-05-21T06:59:05.016Z,15.3681
2023-05-21T07:00:05.037Z,15.3556
2023-05-21T07:02:08.145Z,15.6484
2023-05-21T07:03:09.903Z,15.4897
2023-05-21T07:04:10.664Z,15.3721
2023-05-21T07:05:12.740Z,15.5427
2023-05-21T07:06:12.878Z,15.3357
2023-05-21T07:07:14.619Z,15.1567
2023-05-21T07:08:17.100Z,15.0685
2023-05-21T07:09:17.882Z,15.0800
2023-05-21T07:12:22.100Z,15.2506
2023-05-21T07:13:22.654Z,15.2527
2023-05-21T07:19:31.088Z,16.6366
2023-05-21T07:25:38.469Z,16.0445
2023-05-21T07:26:39.685Z,16.1716
2023-05-21T07:27:40.467Z,16.3565
2023-05-21T07:28:41.253Z,16.0743
2023-05-21T07:29:44.172Z,15.8948
2023-05-21T07:30:44.430Z,15.8995
2023-05-21T07:31:45.676Z,15.8833
2023-05-21T07:32:46.999Z,16.3647
2023-05-21T07:33:48.759Z,16.4673
2023-05-21T07:34:49.646Z,16.5889
2023-05-21T07:36:51.030Z,16.9361
2023-05-21T07:39:52.865Z,16.7972
2023-05-21T07:40:54.526Z,16.7822
2023-05-21T07:41:56.604Z,17.2692
2023-05-21T07:47:02.446Z,16.3052
2023-05-21T07:48:04.637Z,17.2420
2023-05-21T07:50:06.418Z,17.7890
2023-05-21T07:51:06.954Z,17.2999
2023-05-21T07:53:08.782Z,17.4081
2023-05-21T07:54:09.474Z,17.5920
2023-05-21T07:56:09.804Z,17.5710
2023-05-21T07:57:10.557Z,16.9709
2023-05-21T07:58:11.308Z,17.5082
2023-05-21T07:59:13.896Z,17.2797
2023-05-21T08:00:13.818Z,17.4008
2023-05-21T08:05:17.698Z,17.2315
2023-05-21T08:06:17.780Z,17.4468
2023-05-21T08:07:19.911Z,17.3649
2023-05-21T08:08:20.600Z,16.9286
2023-05-21T08:09:20.699Z,16.9751
2023-05-21T08:10:20.877Z,16.9089
2023-05-21T08:11:22.625Z,16.9950
2023-05-21T08:12:23.383Z,17.7832
2023-05-21T08:14:24.431Z,18.0809
2023-05-21T08:15:25.467Z,18.6173
2023-05-21T08:16:26.680Z,19.0867
2023-05-21T08:17:29.315Z,18.5221
2023-05-21T08:18:29.719Z,18.4071
2023-05-21T08:19:30.599Z,18.8680
2023-05-21T08:20:33.184Z,19.7858
2023-05-21T08:21:33.581Z,19.6202
2023-05-21T08:22:34.161Z,19.2864
2023-05-21T08:23:35.153Z,18.5073
2023-05-21T08:24:35.366Z,18.4293
2023-05-21T08:25:36.586Z,18.0459
2023-05-21T08:26:37.421Z,19.0024
2023-05-21T08:28:39.313Z,19.2496
2023-05-21T08:29:41.453Z,18.6613
2023-05-21T08:30:42.041Z,19.1314
2023-05-21T08:32:45.228Z,20.1404
2023-05-21T08:33:46.316Z,19.6750
2023-05-21T08:41:50.154Z,21.5020
2023-05-21T08:42:51.935Z,20.2831
2023-05-21T08:43:54.901Z,19.7975
2023-05-21T08:44:53.684Z,20.6570
2023-05-21T08:45:56.029Z,20.1963
2023-05-21T08:46:56.511Z,20.5643
2023-05-21T08:47:59.189Z,21.3255
2023-05-21T08:49:00.157Z,22.3932
2023-05-21T08:50:01.970Z,20.6036
2023-05-21T08:51:02.785Z,20.5612
2023-05-21T08:52:03.807Z,19.9104
2023-05-21T08:53:12.721Z,19.9780
2023-05-21T08:55:07.229Z,20.1983
2023-05-21T09:01:19.800Z,19.2621
2023-05-21T09:02:19.671Z,19.6446
2023-05-21T09:03:21.915Z,20.8689
2023-05-21T09:04:23.513Z,20.2875
2023-05-21T09:05:23.749Z,19.7260
2023-05-21T09:06:25.997Z,20.4667
2023-05-21T09:07:26.982Z,21.5510
2023-05-21T09:08:28.198Z,21.8680
2023-05-21T09:09:29.548Z,22.5437
2023-05-21T09:10:30.983Z,23.3441
2023-05-21T09:11:31.477Z,21.8233
2023-05-21T09:12:33.610Z,21.6148
2023-05-21T09:13:39.266Z,22.6515
2023-05-21T09:21:42.911Z,23.0340
2023-05-21T09:22:44.157Z,22.9236
2023-05-21T09:24:46.076Z,22.7319
2023-05-21T09:25:47.369Z,21.8963
2023-05-21T09:26:47.701Z,21.1228
2023-05-21T09:27:49.970Z,21.0083
2023-05-21T09:28:51.719Z,20.7507
2023-05-21T09:29:53.359Z,21.0656
2023-05-21T09:30:59.976Z,20.0865
2023-05-21T09:38:04.122Z,22.1984
2023-05-21T09:39:06.252Z,23.3381
2023-05-21T09:40:07.625Z,23.1659
2023-05-21T09:41:09.638Z,24.1463
2023-05-21T09:42:11.909Z,24.3718
2023-05-21T09:43:13.072Z,24.5511
2023-05-21T09:44:15.650Z,22.9653
2023-05-21T09:45:17.614Z,21.8937
2023-05-21T09:47:19.543Z,21.8691
2023-05-21T09:48:19.901Z,22.6755
2023-05-21T09:49:20.988Z,21.7860
2023-05-21T09:50:23.247Z,22.1759
2023-05-21T09:51:23.463Z,22.6061
2023-05-21T09:52:23.589Z,22.3984
2023-05-21T09:53:25.225Z,22.3234
2023-05-21T09:54:26.625Z,21.8759
2023-05-21T09:55:28.325Z,21.8378
2023-05-21T09:56:29.639Z,22.5176
2023-05-21T09:57:29.670Z,22.3940
2023-05-21T09:58:31.549Z,22.0385
2023-05-21T09:59:33.472Z,21.7576
2023-05-21T10:00:34.155Z,21.8935
2023-05-21T10:01:35.647Z,22.0217
2023-05-21T10:02:38.153Z,22.4080
2023-05-21T10:03:39.989Z,23.1605
2023-05-21T10:04:41.321Z,22.5732
2023-05-21T10:05:42.406Z,23.4250
2023-05-21T10:06:44.324Z,23.8316
2023-05-21T10:07:46.403Z,24.4275
2023-05-21T10:10:49.211Z,24.0890
2023-05-21T10:11:49.474Z,23.9547
2023-05-21T10:13:50.986Z,22.9868
2023-05-21T10:15:51.888Z,23.2149
2023-05-21T10:16:53.942Z,22.9254
2023-05-21T10:17:55.533Z,22.8789
2023-05-21T10:18:56.707Z,22.6986
2023-05-21T10:19:58.133Z,23.0559
2023-05-21T10:20:58.385Z,21.8172
2023-05-21T10:21:59.339Z,21.7307
2023-05-21T10:23:00.606Z,22.1423
2023-05-21T10:24:01.194Z,23.3119
2023-05-21T10:25:01.782Z,23.5294
2023-05-21T10:26:04.019Z,23.2439
2023-05-21T10:27:04.097Z,23.4121
2023-05-21T10:28:07.166Z,22.1111
2023-05-21T10:30:11.827Z,22.3969
2023-05-21T10:35:12.376Z,22.1856
2023-05-21T10:36:13.922Z,22.6079
2023-05-21T10:38:15.252Z,23.1880
2023-05-21T10:41:29.918Z,24.1218
2023-05-21T10:49:33.106Z,24.2317
2023-05-21T10:50:33.712Z,24.2804
2023-05-21T10:51:35.075Z,25.1268
2023-05-21T10:52:37.245Z,26.0405
2023-05-21T10:53:37.935Z,25.4736
2023-05-21T10:54:38.541Z,25.1529
2023-05-21T10:55:38.958Z,25.1008
2023-05-21T10:56:39.644Z,24.0974
2023-05-21T10:57:41.911Z,22.9829
2023-05-21T11:00:43.730Z,22.4025
2023-05-21T11:01:45.858Z,22.3241
2023-05-21T11:02:46.759Z,21.7011
2023-05-21T11:04:48.082Z,23.5588
2023-05-21T11:05:48.920Z,23.8689
2023-05-21T11:06:49.762Z,23.1311
2023-05-21T11:07:51.207Z,23.6803
2023-05-21T11:08:53.788Z,24.2162
2023-05-21T11:09:53.015Z,24.3191
2023-05-21T11:10:53.262Z,24.7189
2023-05-21T11:16:59.715Z,22.8276
2023-05-21T11:18:01.775Z,23.2906
2023-05-21T11:19:03.855Z,22.6199
2023-05-21T11:21:04.567Z,22.8990
2023-05-21T11:22:07.235Z,23.0957
2023-05-21T11:23:07.745Z,24.3595
2023-05-21T11:24:08.040Z,23.3858
2023-05-21T11:25:10.003Z,23.3366
2023-05-21T11:26:12.105Z,22.4287
2023-05-21T11:28:14.107Z,23.9633
2023-05-21T11:29:15.031Z,23.1298
2023-05-21T11:30:16.170Z,23.2480
2023-05-21T11:31:17.829Z,23.3633
2023-05-21T11:32:19.085Z,23.5918
2023-05-21T11:33:20.299Z,22.8261
2023-05-21T11:34:22.747Z,23.5139
2023-05-21T11:35:22.835Z,24.5440
2023-05-21T11:36:24.071Z,24.9953
2023-05-21T11:37:27.543Z,23.9704
2023-05-21T11:39:27.681Z,24.7134
2023-05-21T11:47:36.728Z,24.4047
2023-05-21T11:49:37.223Z,25.2475
2023-05-21T11:50:38.304Z,24.8931
2023-05-21T11:51:38.369Z,24.8627
2023-05-21T11:52:39.797Z,25.0483
2023-05-21T11:53:44.028Z,24.8248
2023-05-21T11:54:41.995Z,24.5947
2023-05-21T11:56:45.846Z,25.3197
2023-05-21T11:57:47.293Z,25.0182
2023-05-21T11:58:48.111Z,24.0386
2023-05-21T11:59:49.985Z,26.0176
2023-05-21T12:00:52.635Z,24.7685
2023-05-21T12:01:54.134Z,24.7405
2023-05-21T12:02:54.895Z,25.8527
2023-05-21T12:03:56.858Z,25.3421
2023-05-21T12:04:59.150Z,24.5181
2023-05-21T12:06:00.456Z,25.2262
2023-05-21T12:07:01.738Z,25.9577
2023-05-21T12:08:02.126Z,25.7359
2023-05-21T12:09:03.186Z,25.5739
2023-05-21T12:10:04.171Z,25.2706
2023-05-21T12:11:04.858Z,26.0522
2023-05-21T12:15:06.501Z,24.4947
2023-05-21T12:16:07.323Z,25.5995
2023-05-21T12:18:07.451Z,25.1506
2023-05-21T12:19:07.633Z,24.5483
2023-05-21T12:20:08.326Z,24.9768
2023-05-21T12:22:11.408Z,24.5609
2023-05-21T12:23:13.438Z,25.0141
2023-05-21T12:24:14.152Z,24.8201
2023-05-21T12:25:15.257Z,24.4608
2023-05-21T12:26:18.178Z,23.9863
2023-05-21T12:27:19.986Z,25.5613
2023-05-21T12:33:25.323Z,25.6551
2023-05-21T12:34:28.036Z,25.3283
2023-05-21T12:37:31.006Z,24.7337
2023-05-21T12:39:31.442Z,24.7157
2023-05-21T12:40:32.965Z,24.1795
2023-05-21T12:41:34.338Z,24.3408
2023-05-21T12:42:34.826Z,24.1385
2023-05-21T12:43:36.268Z,23.7810
2023-05-21T12:44:38.672Z,24.4402
2023-05-21T12:45:41.312Z,24.9932
2023-05-21T12:46:41.456Z,24.1448
2023-05-21T12:53:50.399Z,25.2348
2023-05-21T12:54:51.718Z,24.4835
2023-05-21T12:55:53.638Z,24.4721
2023-05-21T12:56:56.234Z,25.0699
2023-05-21T12:57:56.972Z,24.6042
2023-05-21T12:59:57.670Z,23.5052
2023-05-21T13:00:59.434Z,23.7201
2023-05-21T13:01:59.631Z,25.0150
2023-05-21T13:03:59.608Z,25.4493
2023-05-21T13:04:59.908Z,24.7188
2023-05-21T13:06:01.987Z,24.0192
2023-05-21T13:07:04.824Z,24.6004
2023-05-21T13:08:04.769Z,25.6586
2023-05-21T13:09:06.382Z,25.5375
2023-05-21T13:10:07.946Z,24.0893
2023-05-21T13:11:10.676Z,24.2497
2023-05-21T13:12:12.726Z,24.0102
2023-05-21T13:14:14.275Z,24.8608
2023-05-21T13:20:19.178Z,24.8790
2023-05-21T13:21:21.089Z,24.8859
2023-05-21T13:22:22.024Z,24.0087
2023-05-21T13:23:24.881Z,23.8420
2023-05-21T13:28:28.155Z,24.3792
2023-05-21T13:29:30.051Z,23.5434
2023-05-21T13:30:30.944Z,23.9325
2023-05-21T13:31:32.742Z,24.2894
2023-05-21T13:32:33.204Z,24.9268
2023-05-21T13:33:35.151Z,23.8117
2023-05-21T13:34:36.150Z,23.7507
2023-05-21T13:35:36.214Z,24.9873
2023-05-21T13:36:37.081Z,24.5830
2023-05-21T13:37:37.064Z,24.8700
2023-05-21T13:38:38.549Z,25.6206
2023-05-21T13:39:39.766Z,26.5084
2023-05-21T13:40:40.365Z,26.9902
2023-05-21T13:41:41.054Z,25.4240
2023-05-21T13:42:41.143Z,26.0380
2023-05-21T13:43:43.686Z,24.7188
2023-05-21T13:44:44.478Z,25.3481
2023-05-21T13:51:51.492Z,24.3249
2023-05-21T13:52:53.676Z,24.0618
2023-05-21T13:53:55.602Z,24.3209
2023-05-21T13:54:55.013Z,23.8490
2023-05-21T13:56:55.412Z,24.1808
2023-05-21T13:57:56.058Z,23.7297
2023-05-21T13:58:56.588Z,23.5991
2023-05-21T13:59:57.246Z,24.0031
2023-05-21T14:01:59.854Z,24.4751
2023-05-21T14:03:01.594Z,24.7090
2023-05-21T14:04:02.243Z,24.3167
2023-05-21T14:05:05.218Z,24.0405
2023-05-21T14:06:06.327Z,24.5636
2023-05-21T14:07:07.600Z,24.4170
2023-05-21T14:09:10.876Z,25.8373
2023-05-21T14:10:12.544Z,25.7259
2023-05-21T14:11:12.852Z,25.6397
2023-05-21T14:12:14.869Z,25.0362
2023-05-21T14:13:19.970Z,25.4140
2023-05-21T14:14:17.532Z,26.3331
2023-05-21T14:15:18.379Z,24.8880
2023-05-21T14:16:20.289Z,25.2311
2023-05-21T14:17:22.433Z,26.0815
2023-05-21T14:18:23.842Z,26.4558
2023-05-21T14:19:24.873Z,25.3459
2023-05-21T14:20:24.889Z,25.5329
2023-05-21T14:21:26.389Z,25.8689
2023-05-21T14:22:26.641Z,26.0030
2023-05-21T14:24:34.361Z,25.7499
2023-05-21T14:29:33.162Z,25.5826
2023-05-21T14:30:33.921Z,25.8982
2023-05-21T14:31:36.092Z,25.2224
2023-05-21T14:32:36.693Z,24.8428
2023-05-21T14:33:37.706Z,24.8871
2023-05-21T14:36:41.983Z,25.8856
2023-05-21T14:37:42.604Z,25.6977
2023-05-21T14:38:43.844Z,25.3322
2023-05-21T14:40:44.101Z,25.5632
2023-05-21T14:41:46.106Z,25.2405
2023-05-21T14:42:48.212Z,25.9761
2023-05-21T14:43:48.786Z,26.3856
2023-05-21T14:44:49.304Z,26.1739
2023-05-21T14:45:50.683Z,26.3129
2023-05-21T14:46:50.703Z,25.4832
2023-05-21T14:47:52.088Z,25.0535
2023-05-21T14:48:53.881Z,26.0526
2023-05-21T14:49:54.844Z,25.1550
2023-05-21T14:50:56.292Z,25.7598
2023-05-21T14:51:58.223Z,24.5890
2023-05-21T14:52:58.546Z,24.0740
2023-05-21T14:53:59.084Z,23.5595
2023-05-21T14:55:01.129Z,23.9319
2023-05-21T14:56:01.144Z,23.4033
2023-05-21T14:57:01.416Z,23.3740
2023-05-21T14:58:03.507Z,23.1233
2023-05-21T14:59:04.958Z,23.4443
2023-05-21T15:00:05.535Z,23.4146
2023-05-21T15:01:06.407Z,23.5311
2023-05-21T15:02:07.193Z,23.3912
2023-05-21T15:03:07.728Z,23.0240
2023-05-21T15:04:08.336Z,23.7504
2023-05-21T15:05:09.552Z,24.1335
2023-05-21T15:07:10.864Z,23.6990
2023-05-21T15:08:12.244Z,23.5698
2023-05-21T15:09:12.991Z,23.2270
2023-05-21T15:10:16.598Z,23.3166
2023-05-21T15:11:16.900Z,23.5580
2023-05-21T15:12:18.317Z,23.3847
2023-05-21T15:14:20.312Z,24.1139
2023-05-21T15:15:20.936Z,24.4821
2023-05-21T15:16:22.220Z,24.0091
2023-05-21T15:18:25.734Z,24.6010
2023-05-21T15:19:26.252Z,25.1772
2023-05-21T15:20:27.090Z,25.3269
2023-05-21T15:21:29.107Z,25.4843
2023-05-21T15:22:30.497Z,26.5676
2023-05-21T15:24:32.649Z,27.4017
2023-05-21T15:25:33.867Z,26.2588
2023-05-21T15:26:34.694Z,26.6935
2023-05-21T15:27:35.573Z,26.7260
2023-05-21T15:28:37.500Z,27.2506
2023-05-21T15:29:38.171Z,27.6593
2023-05-21T15:30:38.886Z,27.5146
2023-05-21T15:31:39.429Z,27.3473
2023-05-21T15:33:40.622Z,27.1300
2023-05-21T15:34:40.662Z,28.9672
2023-05-21T15:35:43.661Z,26.2664
2023-05-21T15:37:44.808Z,26.9878
2023-05-21T15:38:45.262Z,26.7799
2023-05-21T15:40:47.909Z,27.2165
2023-05-21T15:41:49.017Z,27.2722
2023-05-21T15:42:49.641Z,28.6312
2023-05-21T15:43:51.318Z,28.3111
2023-05-21T15:44:52.238Z,28.3387
2023-05-21T15:45:53.266Z,27.2790
2023-05-21T15:46:53.084Z,26.4005
2023-05-21T15:47:54.240Z,26.5407
2023-05-21T15:48:55.948Z,26.8794
2023-05-21T15:49:58.132Z,27.9354
2023-05-21T15:50:58.632Z,26.5287
2023-05-21T15:51:59.981Z,27.7647
2023-05-21T15:53:01.720Z,28.5743
2023-05-21T15:57:34.196Z,26.2559
2023-05-21T15:58:39.025Z,25.8457
2023-05-21T16:07:44.528Z,28.9580
2023-05-21T16:08:45.977Z,26.9256
2023-05-21T16:09:48.290Z,26.8481
2023-05-21T16:10:50.265Z,26.9094
2023-05-21T16:11:52.180Z,26.3413
2023-05-21T16:12:52.363Z,26.5286
2023-05-21T16:13:54.178Z,26.2750
2023-05-21T16:18:30.409Z,25.7145
2023-05-21T16:19:32.836Z,25.7728
2023-05-21T16:21:34.212Z,26.4453
2023-05-21T16:22:34.794Z,26.1587
2023-05-21T16:23:36.510Z,26.1125
2023-05-21T16:24:37.947Z,25.8437
2023-05-21T16:25:39.996Z,24.9438
2023-05-21T16:26:41.814Z,25.5042
2023-05-21T16:28:44.506Z,24.1982
2023-05-21T16:29:46.394Z,23.9084
2023-05-21T16:30:45.976Z,24.0891
2023-05-21T16:31:47.549Z,24.3077
2023-05-21T16:32:48.790Z,24.3980
2023-05-21T16:33:49.688Z,24.4799
2023-05-21T16:34:51.241Z,24.1860
2023-05-21T16:35:54.156Z,24.4395
2023-05-21T16:36:57.166Z,24.2890
2023-05-21T16:38:58.103Z,25.2083
2023-05-21T16:39:59.634Z,25.2921
2023-05-21T16:40:59.644Z,25.1612
2023-05-21T16:42:02.393Z,24.7741
2023-05-21T16:43:04.338Z,24.7144
2023-05-21T16:52:44.730Z,25.0752
2023-05-21T16:53:44.938Z,25.7418
2023-05-21T16:55:48.190Z,25.9226
2023-05-21T16:56:48.555Z,26.6002
2023-05-21T16:58:50.476Z,25.5502
2023-05-21T17:00:51.370Z,24.4397
2023-05-21T17:01:52.005Z,24.1804
2023-05-21T17:03:53.140Z,24.0197
2023-05-21T17:04:52.999Z,24.0124
2023-05-21T17:05:54.769Z,24.5556
2023-05-21T17:06:57.010Z,24.1861
2023-05-21T17:14:06.492Z,22.9630
2023-05-21T17:15:06.942Z,22.6258
2023-05-21T17:16:07.059Z,22.5769
2023-05-21T17:17:09.139Z,22.2548
2023-05-21T17:18:10.979Z,22.0975
2023-05-21T17:19:12.157Z,22.1772
2023-05-21T17:20:13.398Z,22.0846
2023-05-21T17:21:15.180Z,22.3802